createdAt,value
2018-05-09T00:01:57.769Z,4.30
2018-05-09T00:05:00.226Z,4.63
2018-05-09T00:08:02.671Z,5.10
2018-05-09T00:11:05.126Z,5.20
2018-05-09T00:14:07.570Z,4.50
2018-05-09T00:17:10.102Z,4.90
2018-05-09T00:20:12.557Z,5.13
2018-05-09T00:23:15.002Z,4.80
2018-05-09T00:26:17.453Z,5.13
2018-05-09T00:29:19.895Z,4.80
2018-05-09T00:32:22.345Z,5.17
2018-05-09T00:35:25.568Z,5.13
2018-05-09T00:38:28.009Z,4.40
2018-05-09T00:41:31.230Z,4.73
2018-05-09T00:44:33.702Z,5.20
2018-05-09T00:47:36.150Z,4.87
2018-05-09T00:50:39.376Z,4.83
2018-05-09T00:53:41.820Z,5.20
2018-05-09T00:56:45.025Z,5.37
2018-05-09T00:59:48.253Z,4.80
2018-05-09T01:02:50.692Z,4.83
2018-05-09T01:05:53.909Z,5.27
2018-05-09T01:08:56.349Z,4.80
2018-05-09T01:11:58.801Z,5.17
2018-05-09T01:15:01.273Z,4.80
2018-05-09T01:18:03.713Z,5.00
2018-05-09T01:21:06.164Z,5.70
2018-05-09T01:24:09.377Z,4.77
2018-05-09T01:27:11.833Z,5.30
2018-05-09T01:30:14.277Z,4.97
2018-05-09T01:33:16.730Z,5.57
2018-05-09T01:36:19.182Z,5.40
2018-05-09T01:39:21.622Z,4.43
2018-05-09T01:42:24.075Z,4.70
2018-05-09T01:45:26.537Z,5.10
2018-05-09T01:48:28.977Z,4.40
2018-05-09T01:51:32.203Z,4.87
2018-05-09T01:54:34.689Z,5.00
2018-05-09T01:57:37.145Z,5.60
2018-05-09T02:00:39.593Z,5.50
2018-05-09T02:03:42.798Z,5.30
2018-05-09T02:06:46.024Z,4.83
2018-05-09T02:09:48.461Z,5.37
2018-05-09T02:12:51.684Z,4.73
2018-05-09T02:15:54.139Z,5.20
2018-05-09T02:18:56.586Z,5.27
2018-05-09T02:21:59.038Z,5.10
2018-05-09T02:25:01.489Z,5.10
2018-05-09T02:28:03.934Z,4.90
2018-05-09T02:31:06.412Z,5.33
2018-05-09T02:34:08.823Z,5.50
2018-05-09T02:37:11.273Z,5.20
2018-05-09T02:40:14.491Z,4.77
2018-05-09T02:43:16.928Z,4.77
2018-05-09T02:46:19.395Z,5.07
2018-05-09T02:49:21.843Z,5.07
2018-05-09T02:52:24.294Z,4.90
2018-05-09T02:55:26.747Z,5.40
2018-05-09T02:58:29.193Z,5.10
2018-05-09T03:01:31.643Z,5.27
2018-05-09T03:04:34.085Z,4.57
2018-05-09T03:07:36.542Z,5.10
2018-05-09T03:10:38.990Z,4.90
2018-05-09T03:13:41.445Z,4.63
2018-05-09T03:16:43.905Z,5.03
2018-05-09T03:19:46.346Z,5.40
2018-05-09T03:22:48.806Z,5.23
2018-05-09T03:25:51.258Z,4.70
2018-05-09T03:28:53.707Z,4.40
2018-05-09T03:31:56.163Z,5.20
2018-05-09T03:34:59.369Z,5.07
2018-05-09T03:38:01.834Z,5.00
2018-05-09T03:41:05.057Z,4.40
2018-05-09T03:44:07.498Z,5.13
2018-05-09T03:47:10.719Z,4.67
2018-05-09T03:50:13.171Z,5.27
2018-05-09T03:53:15.705Z,5.37
2018-05-09T03:56:18.077Z,4.80
2018-05-09T03:59:20.527Z,4.90
2018-05-09T04:02:37.781Z,5.33
2018-05-09T04:05:52.252Z,4.67
2018-05-09T04:09:06.682Z,4.97
2018-05-09T04:12:09.141Z,5.13
2018-05-09T04:15:11.589Z,5.70
2018-05-09T04:18:14.050Z,4.67
2018-05-09T04:21:16.494Z,5.43
2018-05-09T04:24:18.939Z,4.60
2018-05-09T04:27:21.393Z,5.63
2018-05-09T04:30:23.833Z,4.90
2018-05-09T04:33:26.285Z,4.90
2018-05-09T04:36:28.738Z,4.87
2018-05-09T04:39:31.948Z,4.67
2018-05-09T04:42:34.402Z,4.70
2018-05-09T04:45:37.618Z,4.83
2018-05-09T04:48:40.062Z,5.10
2018-05-09T04:51:42.517Z,4.70
2018-05-09T04:54:44.953Z,5.13
2018-05-09T04:57:47.409Z,4.70
2018-05-09T05:00:49.857Z,4.63
2018-05-09T05:03:52.301Z,4.90
2018-05-09T05:06:54.760Z,4.50
2018-05-09T05:09:57.193Z,4.80
2018-05-09T05:12:59.645Z,4.83
2018-05-09T05:16:02.094Z,5.00
2018-05-09T05:19:04.550Z,4.70
2018-05-09T05:22:07.005Z,4.70
2018-05-09T05:25:10.214Z,4.50
2018-05-09T05:28:13.434Z,4.60
2018-05-09T05:31:15.886Z,4.27
2018-05-09T05:34:19.109Z,4.60
2018-05-09T05:37:21.561Z,4.07
2018-05-09T05:40:24.006Z,3.97
2018-05-09T05:43:26.454Z,3.97
2018-05-09T05:46:28.902Z,3.63
2018-05-09T05:49:31.349Z,3.87
2018-05-09T05:52:33.790Z,3.67
2018-05-09T05:55:36.238Z,3.77
2018-05-09T05:58:38.691Z,3.47
2018-05-09T06:01:41.129Z,3.73
2018-05-09T06:04:43.581Z,3.37
2018-05-09T06:07:46.042Z,3.53
2018-05-09T06:10:48.477Z,3.53
2018-05-09T06:13:50.925Z,3.78
2018-05-09T06:16:53.378Z,3.90
2018-05-09T06:19:55.824Z,2.85
2018-05-09T06:22:59.046Z,3.40
2018-05-09T06:26:01.481Z,3.33
2018-05-09T06:29:04.703Z,3.80
2018-05-09T06:32:07.153Z,3.28
2018-05-09T06:35:10.375Z,3.50
2018-05-09T06:38:12.823Z,5.18
2018-05-09T06:41:15.263Z,5.70
2018-05-09T06:44:17.717Z,3.40
2018-05-09T06:47:20.166Z,3.40
2018-05-09T06:50:23.374Z,4.22
2018-05-09T06:53:25.821Z,3.17
2018-05-09T06:56:30.098Z,3.53
2018-05-09T06:59:32.561Z,3.33
2018-05-09T07:02:35.023Z,3.62
2018-05-09T07:05:37.471Z,3.30
2018-05-09T07:08:40.839Z,3.22
2018-05-09T07:11:55.459Z,4.68
2018-05-09T07:14:57.930Z,4.05
2018-05-09T07:18:00.380Z,3.30
2018-05-09T07:21:03.593Z,3.58
2018-05-09T07:24:06.806Z,3.87
2018-05-09T07:27:09.254Z,3.70
2018-05-09T07:30:12.474Z,3.60
2018-05-09T07:33:14.929Z,4.10
2018-05-09T07:36:18.138Z,3.90
2018-05-09T07:39:20.589Z,3.50
2018-05-09T07:42:24.794Z,3.80
2018-05-09T07:45:27.240Z,3.53
2018-05-09T07:48:29.699Z,3.50
2018-05-09T07:51:32.142Z,3.67
2018-05-09T07:54:35.367Z,3.53
2018-05-09T07:57:37.827Z,3.87
2018-05-09T08:00:40.270Z,3.58
2018-05-09T08:03:42.722Z,3.83
2018-05-09T08:06:45.165Z,3.50
2018-05-09T08:09:47.613Z,3.55
2018-05-09T08:12:50.864Z,3.87
2018-05-09T08:15:53.300Z,3.33
2018-05-09T08:18:56.514Z,3.10
2018-05-09T08:21:58.965Z,3.45
2018-05-09T08:25:02.177Z,3.50
2018-05-09T08:28:04.637Z,3.40
2018-05-09T08:31:07.849Z,3.70
2018-05-09T08:34:16.806Z,3.45
2018-05-09T08:37:19.258Z,3.23
2018-05-09T08:40:21.710Z,3.53
2018-05-09T08:43:25.019Z,3.73
2018-05-09T08:46:27.366Z,3.50
2018-05-09T08:49:29.822Z,3.50
2018-05-09T08:52:32.257Z,3.67
2018-05-09T08:55:34.795Z,3.90
2018-05-09T08:58:37.154Z,3.33
2018-05-09T09:01:39.600Z,3.40
2018-05-09T09:04:42.049Z,4.00
2018-05-09T09:07:44.489Z,3.67
2018-05-09T09:10:46.992Z,3.83
2018-05-09T09:13:49.405Z,3.60
2018-05-09T09:16:51.848Z,4.13
2018-05-09T09:19:55.061Z,3.97
2018-05-09T09:22:57.520Z,4.00
2018-05-09T09:26:06.628Z,4.40
2018-05-09T09:29:09.176Z,4.20
2018-05-09T09:32:11.526Z,4.80
2018-05-09T09:35:13.974Z,4.37
2018-05-09T09:38:17.186Z,4.80
2018-05-09T09:41:19.676Z,4.93
2018-05-09T09:44:22.099Z,5.13
2018-05-09T09:47:24.541Z,6.17
2018-05-09T09:50:26.990Z,5.67
2018-05-09T09:53:29.623Z,5.17
2018-05-09T09:56:32.867Z,5.67
2018-05-09T09:59:35.320Z,6.37
2018-05-09T10:02:37.766Z,5.27
2018-05-09T10:05:40.210Z,5.87
2018-05-09T10:08:42.663Z,5.70
2018-05-09T10:11:45.867Z,4.70
2018-05-09T10:14:48.317Z,5.13
2018-05-09T10:17:50.752Z,5.17
2018-05-09T10:20:58.181Z,5.30
2018-05-09T10:24:00.633Z,5.23
2018-05-09T10:27:03.090Z,4.80
2018-05-09T10:30:05.541Z,4.63
2018-05-09T10:33:07.977Z,5.00
2018-05-09T10:36:10.447Z,4.83
2018-05-09T10:39:12.887Z,4.50
2018-05-09T10:42:15.335Z,4.40
2018-05-09T10:45:18.561Z,4.10
2018-05-09T10:48:24.982Z,4.50
2018-05-09T10:51:27.434Z,3.97
2018-05-09T10:54:29.876Z,3.93
2018-05-09T10:57:32.334Z,3.77
2018-05-09T11:00:35.552Z,3.90
2018-05-09T11:03:38.019Z,3.53
2018-05-09T11:06:40.461Z,3.33
2018-05-09T11:09:42.914Z,3.77
2018-05-09T11:12:45.358Z,4.60
2018-05-09T11:15:47.802Z,4.43
2018-05-09T11:18:51.032Z,4.33
2018-05-09T11:21:53.487Z,3.80
2018-05-09T11:24:55.934Z,3.53
2018-05-09T11:27:58.382Z,3.80
2018-05-09T11:31:00.836Z,4.20
2018-05-09T11:34:03.294Z,3.90
2018-05-09T11:37:05.734Z,4.30
2018-05-09T11:40:08.186Z,3.77
2018-05-09T11:43:10.630Z,4.53
2018-05-09T11:46:13.089Z,3.80
2018-05-09T11:49:16.302Z,4.10
2018-05-09T11:52:18.742Z,3.40
2018-05-09T11:55:21.202Z,4.23
2018-05-09T11:58:23.641Z,3.80
2018-05-09T12:01:26.086Z,4.30
2018-05-09T12:04:29.310Z,3.80
2018-05-09T12:07:31.749Z,3.27
2018-05-09T12:10:35.031Z,3.30
2018-05-09T12:13:37.409Z,3.43
2018-05-09T12:16:39.876Z,3.13
2018-05-09T12:19:42.331Z,3.30
2018-05-09T12:22:44.769Z,3.17
2018-05-09T12:25:47.218Z,3.57
2018-05-09T12:28:50.107Z,3.03
2018-05-09T12:31:52.545Z,3.40
2018-05-09T12:34:55.002Z,3.43
2018-05-09T12:37:57.454Z,3.63
2018-05-09T12:41:00.686Z,3.70
2018-05-09T12:44:03.137Z,3.27
2018-05-09T12:47:05.589Z,3.60
2018-05-09T12:50:08.038Z,3.20
2018-05-09T12:53:10.490Z,3.33
2018-05-09T12:56:12.950Z,3.40
2018-05-09T12:59:15.397Z,3.50
2018-05-09T13:02:18.614Z,3.60
2018-05-09T13:05:21.058Z,3.40
2018-05-09T13:08:23.536Z,3.70
2018-05-09T13:11:25.981Z,3.60
2018-05-09T13:14:28.433Z,3.70
2018-05-09T13:17:30.881Z,3.90
2018-05-09T13:20:33.325Z,3.57
2018-05-09T13:23:35.773Z,3.60
2018-05-09T13:26:38.230Z,3.80
2018-05-09T13:29:40.682Z,4.03
2018-05-09T13:32:43.124Z,3.90
2018-05-09T13:35:45.583Z,4.50
2018-05-09T13:38:48.029Z,4.33
2018-05-09T13:41:50.474Z,4.13
2018-05-09T13:44:52.933Z,4.40
2018-05-09T13:47:55.378Z,4.43
2018-05-09T13:50:57.838Z,4.30
2018-05-09T13:54:00.314Z,4.07
2018-05-09T13:57:03.893Z,4.00
2018-05-09T14:00:08.447Z,4.37
2018-05-09T14:03:14.053Z,4.47
2018-05-09T14:06:16.502Z,4.10
2018-05-09T14:09:18.953Z,4.37
2018-05-09T14:12:21.394Z,4.43
2018-05-09T14:15:24.613Z,4.00
2018-05-09T14:18:27.049Z,4.17
2018-05-09T14:21:29.514Z,4.50
2018-05-09T14:24:31.961Z,5.30
2018-05-09T14:27:34.408Z,3.67
2018-05-09T14:30:37.626Z,4.30
2018-05-09T14:33:40.066Z,4.40
2018-05-09T14:36:43.286Z,4.00
2018-05-09T14:39:45.754Z,3.67
2018-05-09T14:42:48.203Z,3.73
2018-05-09T14:45:50.650Z,4.13
2018-05-09T14:48:53.094Z,3.60
2018-05-09T14:51:55.549Z,3.83
2018-05-09T14:54:58.003Z,4.17
2018-05-09T14:58:00.446Z,4.37
2018-05-09T15:01:02.901Z,4.33
2018-05-09T15:04:05.353Z,4.00
2018-05-09T15:07:08.564Z,4.20
2018-05-09T15:10:11.018Z,4.33
2018-05-09T15:13:13.462Z,3.70
2018-05-09T15:16:15.913Z,3.60
2018-05-09T15:19:18.361Z,4.30
2018-05-09T15:22:21.602Z,4.20
2018-05-09T15:25:24.066Z,4.30
2018-05-09T15:28:26.485Z,4.23
2018-05-09T15:31:29.711Z,5.43
2018-05-09T15:34:32.158Z,4.30
2018-05-09T15:37:34.610Z,3.87
2018-05-09T15:40:37.057Z,4.23
2018-05-09T15:43:39.501Z,4.00
2018-05-09T15:46:42.730Z,3.70
2018-05-09T15:49:45.169Z,4.43
2018-05-09T15:52:48.388Z,4.23
2018-05-09T15:55:50.842Z,4.20
2018-05-09T15:58:54.060Z,4.00
2018-05-09T16:01:56.505Z,4.13
2018-05-09T16:04:58.953Z,3.77
2018-05-09T16:08:01.402Z,3.90
2018-05-09T16:11:03.845Z,4.03
2018-05-09T16:14:07.098Z,3.80
2018-05-09T16:17:09.550Z,4.77
2018-05-09T16:20:12.002Z,4.30
2018-05-09T16:23:14.445Z,4.07
2018-05-09T16:26:17.026Z,4.23
2018-05-09T16:29:19.501Z,4.00
2018-05-09T16:32:21.962Z,4.13
2018-05-09T16:35:24.437Z,4.10
2018-05-09T16:38:26.978Z,3.50
2018-05-09T16:41:29.451Z,4.27
2018-05-09T16:44:31.935Z,4.03
2018-05-09T16:47:34.386Z,4.47
2018-05-09T16:50:37.639Z,3.93
2018-05-09T16:53:40.159Z,4.80
2018-05-09T16:56:42.849Z,4.87
2018-05-09T16:59:45.381Z,4.50
2018-05-09T17:02:47.944Z,4.20
2018-05-09T17:05:50.603Z,4.10
2018-05-09T17:08:53.240Z,4.30
2018-05-09T17:11:55.959Z,4.43
2018-05-09T17:14:58.522Z,4.33
2018-05-09T17:18:01.897Z,4.90
2018-05-09T17:21:04.524Z,4.50
2018-05-09T17:24:07.205Z,4.37
2018-05-09T17:27:09.845Z,4.50
2018-05-09T17:30:12.447Z,4.60
2018-05-09T17:33:19.612Z,4.83
2018-05-09T17:36:22.066Z,5.60
2018-05-09T17:39:24.521Z,5.07
2018-05-09T17:42:26.997Z,4.43
2018-05-09T17:45:29.434Z,4.50
2018-05-09T17:48:31.882Z,4.70
2018-05-09T17:51:34.341Z,4.53
2018-05-09T17:54:36.801Z,4.50
2018-05-09T17:57:39.265Z,4.90
2018-05-09T18:00:41.723Z,4.73
2018-05-09T18:03:44.997Z,4.57
2018-05-09T18:06:47.459Z,4.73
2018-05-09T18:09:49.906Z,5.23
2018-05-09T18:12:52.367Z,4.83
2018-05-09T18:15:54.823Z,4.83
2018-05-09T18:18:58.039Z,4.43
2018-05-09T18:22:00.486Z,4.43
2018-05-09T18:25:03.709Z,4.57
2018-05-09T18:28:06.170Z,4.47
2018-05-09T18:31:09.386Z,4.20
2018-05-09T18:34:11.833Z,4.37
2018-05-09T18:37:15.053Z,4.63
2018-05-09T18:40:17.498Z,4.53
2018-05-09T18:43:20.726Z,4.60
2018-05-09T18:46:23.270Z,4.60
2018-05-09T18:49:26.381Z,4.50
2018-05-09T18:52:28.841Z,4.27
2018-05-09T18:55:31.284Z,4.80
2018-05-09T18:58:33.746Z,4.33
2018-05-09T19:01:36.202Z,4.17
2018-05-09T19:04:38.645Z,4.60
2018-05-09T19:07:41.870Z,4.63
2018-05-09T19:10:44.321Z,4.73
2018-05-09T19:13:47.547Z,4.60
2018-05-09T19:19:58.850Z,4.73
2018-05-09T19:23:01.391Z,4.60
2018-05-09T19:26:03.758Z,5.07
2018-05-09T19:29:06.206Z,4.50
2018-05-09T19:32:08.697Z,4.73
2018-05-09T19:35:11.097Z,4.93
2018-05-09T19:38:14.325Z,4.40
2018-05-09T19:41:16.774Z,4.70
2018-05-09T19:44:19.988Z,4.60
2018-05-09T19:47:22.444Z,4.70
2018-05-09T19:50:25.655Z,4.63
2018-05-09T19:53:28.118Z,4.47
2018-05-09T19:56:31.355Z,4.90
2018-05-09T19:59:33.817Z,4.50
2018-05-09T20:02:41.478Z,4.40
2018-05-09T20:05:43.917Z,4.87
2018-05-09T20:08:46.374Z,4.97
2018-05-09T20:11:48.829Z,4.77
2018-05-09T20:14:51.274Z,4.90
2018-05-09T20:17:55.250Z,4.93
2018-05-09T20:20:57.700Z,4.73
2018-05-09T20:24:00.145Z,5.03
2018-05-09T20:27:02.600Z,5.00
2018-05-09T20:30:10.862Z,5.20
2018-05-09T20:33:13.306Z,4.87
2018-05-09T20:36:15.745Z,4.80
2018-05-09T20:39:18.198Z,5.13
2018-05-09T20:42:20.649Z,5.07
2018-05-09T20:45:23.868Z,4.83
2018-05-09T20:48:26.313Z,5.13
2018-05-09T20:51:41.438Z,4.70
2018-05-09T20:54:43.886Z,4.80
2018-05-09T20:57:46.337Z,4.57
2018-05-09T21:00:49.551Z,5.40
2018-05-09T21:03:52.771Z,4.93
2018-05-09T21:06:55.228Z,5.43
2018-05-09T21:09:57.667Z,5.27
2018-05-09T21:13:00.126Z,5.20
2018-05-09T21:16:02.569Z,5.33
2018-05-09T21:19:05.023Z,4.93
2018-05-09T21:22:08.255Z,5.30
2018-05-09T21:25:10.698Z,5.10
2018-05-09T21:28:13.917Z,4.97
2018-05-09T21:31:16.366Z,4.63
2018-05-09T21:34:19.594Z,6.57
2018-05-09T21:37:22.040Z,6.60
2018-05-09T21:40:24.485Z,6.20
2018-05-09T21:43:26.942Z,5.50
2018-05-09T21:46:29.394Z,6.47
2018-05-09T21:49:31.842Z,5.70
2018-05-09T21:52:35.058Z,6.07
2018-05-09T21:55:37.510Z,6.33
2018-05-09T21:58:40.726Z,5.67
2018-05-09T22:01:43.179Z,5.60
2018-05-09T22:04:46.391Z,6.30
2018-05-09T22:07:48.842Z,6.00
2018-05-09T22:10:52.095Z,5.60
2018-05-09T22:13:54.505Z,5.67
2018-05-09T22:16:56.941Z,6.03
2018-05-09T22:19:59.392Z,6.70
2018-05-09T22:23:01.863Z,6.77
2018-05-09T22:26:04.314Z,6.63
2018-05-09T22:29:06.822Z,6.20
2018-05-09T22:32:09.206Z,6.10
2018-05-09T22:35:11.665Z,6.23
2018-05-09T22:38:14.117Z,5.93
2018-05-09T22:41:16.562Z,6.27
2018-05-09T22:44:19.027Z,5.97
2018-05-09T22:47:21.488Z,6.00
2018-05-09T22:50:23.957Z,6.07
2018-05-09T22:53:26.422Z,5.77
2018-05-09T22:56:28.859Z,5.80
2018-05-09T22:59:31.328Z,6.17
2018-05-09T23:02:33.768Z,6.63
2018-05-09T23:05:36.214Z,5.80
2018-05-09T23:08:39.434Z,5.80
2018-05-09T23:11:41.874Z,6.43
2018-05-09T23:14:44.333Z,6.37
2018-05-09T23:17:46.795Z,6.10
2018-05-09T23:20:50.022Z,6.97
2018-05-09T23:23:52.520Z,6.50
2018-05-09T23:26:54.918Z,6.57
2018-05-09T23:29:57.369Z,6.87
2018-05-09T23:33:00.604Z,6.43
2018-05-09T23:36:03.058Z,6.77
2018-05-09T23:39:05.520Z,7.67
2018-05-09T23:42:08.734Z,8.10
2018-05-09T23:45:11.185Z,7.60
2018-05-09T23:48:13.659Z,7.37
2018-05-09T23:51:16.882Z,7.93
2018-05-09T23:54:19.337Z,8.07
2018-05-09T23:57:22.562Z,10.70
